sensor_id;sensor_type;location;lat;lon;timestamp;pressure;altitude;pressure_sealevel;temperature;humidity
38716;BME280;24833;49.324;8.694;2022-12-18T00:01:37;101051.28;;;-7.89;87.96
38716;BME280;24833;49.324;8.694;2022-12-18T00:04:06;101047.84;;;-7.90;88.04
38716;BME280;24833;49.324;8.694;2022-12-18T00:06:35;101056.44;;;-7.89;88.01
38716;BME280;24833;49.324;8.694;2022-12-18T00:09:03;101056.44;;;-7.89;87.86
38716;BME280;24833;49.324;8.694;2022-12-18T00:11:31;101051.28;;;-7.89;88.16
38716;BME280;24833;49.324;8.694;2022-12-18T00:13:59;101049.56;;;-7.89;88.00
38716;BME280;24833;49.324;8.694;2022-12-18T00:16:28;101057.34;;;-7.89;87.95
38716;BME280;24833;49.324;8.694;2022-12-18T00:18:59;101049.56;;;-7.90;88.08
38716;BME280;24833;49.324;8.694;2022-12-18T00:21:28;101053.06;;;-7.91;87.94
38716;BME280;24833;49.324;8.694;2022-12-18T00:23:55;101059.09;;;-7.91;87.92
38716;BME280;24833;49.324;8.694;2022-12-18T00:26:34;101058.31;;;-7.93;88.05
38716;BME280;24833;49.324;8.694;2022-12-18T00:29:07;101060.91;;;-7.93;87.83
38716;BME280;24833;49.324;8.694;2022-12-18T00:31:36;101055.78;;;-7.94;87.90
38716;BME280;24833;49.324;8.694;2022-12-18T00:34:04;101054.06;;;-7.96;87.87
38716;BME280;24833;49.324;8.694;2022-12-18T00:36:34;101056.66;;;-7.96;87.78
38716;BME280;24833;49.324;8.694;2022-12-18T00:39:04;101051.47;;;-7.96;87.94
38716;BME280;24833;49.324;8.694;2022-12-18T00:41:31;101054.94;;;-7.97;88.03
38716;BME280;24833;49.324;8.694;2022-12-18T00:44:18;101055.78;;;-7.96;87.96
38716;BME280;24833;49.324;8.694;2022-12-18T00:46:47;101054.09;;;-7.97;87.86
38716;BME280;24833;49.324;8.694;2022-12-18T00:49:17;101051.50;;;-7.97;87.97
38716;BME280;24833;49.324;8.694;2022-12-18T00:51:46;101048.06;;;-7.98;87.92
38716;BME280;24833;49.324;8.694;2022-12-18T00:54:13;101045.53;;;-7.99;88.01
38716;BME280;24833;49.324;8.694;2022-12-18T00:56:40;101062.81;;;-8.00;88.08
38716;BME280;24833;49.324;8.694;2022-12-18T00:59:17;101062.88;;;-8.01;87.88
38716;BME280;24833;49.324;8.694;2022-12-18T01:01:45;101068.91;;;-8.01;87.98
38716;BME280;24833;49.324;8.694;2022-12-18T01:04:12;101069.81;;;-8.02;87.89
38716;BME280;24833;49.324;8.694;2022-12-18T01:06:40;101069.81;;;-8.02;87.87
38716;BME280;24833;49.324;8.694;2022-12-18T01:09:07;101065.50;;;-8.03;87.87
38716;BME280;24833;49.324;8.694;2022-12-18T01:11:36;101062.06;;;-8.03;87.97
38716;BME280;24833;49.324;8.694;2022-12-18T01:14:04;101062.06;;;-8.03;87.98
38716;BME280;24833;49.324;8.694;2022-12-18T01:16:31;101064.69;;;-8.05;87.92
38716;BME280;24833;49.324;8.694;2022-12-18T01:18:58;101062.09;;;-8.05;87.82
38716;BME280;24833;49.324;8.694;2022-12-18T01:21:27;101051.75;;;-8.05;87.84
38716;BME280;24833;49.324;8.694;2022-12-18T01:23:55;101055.22;;;-8.06;88.01
38716;BME280;24833;49.324;8.694;2022-12-18T01:26:24;101052.63;;;-8.06;88.04
38716;BME280;24833;49.324;8.694;2022-12-18T01:28:53;101051.78;;;-8.06;87.96
38716;BME280;24833;49.324;8.694;2022-12-18T01:31:31;101050.09;;;-8.07;87.88
38716;BME280;24833;49.324;8.694;2022-12-18T01:34:03;101049.25;;;-8.08;88.03
38716;BME280;24833;49.324;8.694;2022-12-18T01:36:36;101069.16;;;-8.10;87.78
38716;BME280;24833;49.324;8.694;2022-12-18T01:39:08;101070.06;;;-8.11;87.86
38716;BME280;24833;49.324;8.694;2022-12-18T01:41:36;101068.41;;;-8.13;87.83
38716;BME280;24833;49.324;8.694;2022-12-18T01:50:25;101069.44;;;-8.19;87.66
38716;BME280;24833;49.324;8.694;2022-12-18T01:53:14;101060.03;;;-8.23;87.67
38716;BME280;24833;49.324;8.694;2022-12-18T01:55:51;101054.97;;;-8.26;87.58
38716;BME280;24833;49.324;8.694;2022-12-18T01:58:45;101052.44;;;-8.29;87.91
38716;BME280;24833;49.324;8.694;2022-12-18T02:01:13;101052.56;;;-8.32;87.66
38716;BME280;24833;49.324;8.694;2022-12-18T02:03:43;101053.50;;;-8.35;87.58
38716;BME280;24833;49.324;8.694;2022-12-18T02:06:20;101061.44;;;-8.39;87.54
38716;BME280;24833;49.324;8.694;2022-12-18T02:09:10;101069.25;;;-8.41;87.60
38716;BME280;24833;49.324;8.694;2022-12-18T02:12:09;101057.22;;;-8.43;87.53
38716;BME280;24833;49.324;8.694;2022-12-18T02:17:20;101054.72;;;-8.46;87.64
38716;BME280;24833;49.324;8.694;2022-12-18T02:20:32;101052.22;;;-8.49;87.61
38716;BME280;24833;49.324;8.694;2022-12-18T02:23:45;101066.94;;;-8.52;87.62
38716;BME280;24833;49.324;8.694;2022-12-18T02:26:18;101069.63;;;-8.55;87.60
38716;BME280;24833;49.324;8.694;2022-12-18T02:29:44;101068.81;;;-8.57;87.58
38716;BME280;24833;49.324;8.694;2022-12-18T02:32:24;101066.31;;;-8.60;87.37
38716;BME280;24833;49.324;8.694;2022-12-18T02:34:54;101071.53;;;-8.61;87.70
38716;BME280;24833;49.324;8.694;2022-12-18T02:37:25;101075.03;;;-8.62;87.48
38716;BME280;24833;49.324;8.694;2022-12-18T02:39:56;101084.50;;;-8.63;87.61
38716;BME280;24833;49.324;8.694;2022-12-18T02:42:24;101081.06;;;-8.63;87.64
38716;BME280;24833;49.324;8.694;2022-12-18T02:44:52;101077.63;;;-8.64;87.67
38716;BME280;24833;49.324;8.694;2022-12-18T02:47:29;101079.31;;;-8.63;87.74
38716;BME280;24833;49.324;8.694;2022-12-18T02:52:31;101059.50;;;-8.62;87.85
38716;BME280;24833;49.324;8.694;2022-12-18T02:55:32;101043.03;;;-8.60;87.80
38716;BME280;24833;49.324;8.694;2022-12-18T02:58:47;101036.06;;;-8.58;87.95
38716;BME280;24833;49.324;8.694;2022-12-18T03:06:55;101049.00;;;-8.58;87.89
38716;BME280;24833;49.324;8.694;2022-12-18T03:09:31;101061.09;;;-8.58;87.92
38716;BME280;24833;49.324;8.694;2022-12-18T03:12:32;101059.34;;;-8.58;87.85
38716;BME280;24833;49.324;8.694;2022-12-18T03:15:13;101044.66;;;-8.56;87.88
38716;BME280;24833;49.324;8.694;2022-12-18T03:18:11;101043.78;;;-8.56;87.97
38716;BME280;24833;49.324;8.694;2022-12-18T03:20:42;101052.41;;;-8.56;87.88
38716;BME280;24833;49.324;8.694;2022-12-18T03:23:18;101061.88;;;-8.56;87.99
38716;BME280;24833;49.324;8.694;2022-12-18T03:25:56;101068.81;;;-8.57;88.14
38716;BME280;24833;49.324;8.694;2022-12-18T03:28:41;101050.72;;;-8.58;87.81
38716;BME280;24833;49.324;8.694;2022-12-18T03:31:12;101051.59;;;-8.58;87.81
38716;BME280;24833;49.324;8.694;2022-12-18T03:33:50;101043.88;;;-8.59;87.85
38716;BME280;24833;49.324;8.694;2022-12-18T03:36:18;101044.72;;;-8.59;87.94
38716;BME280;24833;49.324;8.694;2022-12-18T03:38:46;101057.72;;;-8.60;87.67
38716;BME280;24833;49.324;8.694;2022-12-18T03:41:36;101063.78;;;-8.61;87.70
38716;BME280;24833;49.324;8.694;2022-12-18T03:47:25;101063.00;;;-8.65;87.72
38716;BME280;24833;49.324;8.694;2022-12-18T03:50:23;101049.22;;;-8.65;87.55
38716;BME280;24833;49.324;8.694;2022-12-18T03:55:45;101055.41;;;-8.71;87.60
38716;BME280;24833;49.324;8.694;2022-12-18T03:58:18;101046.84;;;-8.73;87.55
38716;BME280;24833;49.324;8.694;2022-12-18T04:00:56;101061.56;;;-8.75;87.70
38716;BME280;24833;49.324;8.694;2022-12-18T04:03:28;101058.19;;;-8.79;87.72
38716;BME280;24833;49.324;8.694;2022-12-18T04:05:58;101059.13;;;-8.81;87.48
38716;BME280;24833;49.324;8.694;2022-12-18T04:08:28;101061.75;;;-8.83;87.60
38716;BME280;24833;49.324;8.694;2022-12-18T04:11:02;101055.81;;;-8.86;87.57
38716;BME280;24833;49.324;8.694;2022-12-18T04:13:36;101054.13;;;-8.87;87.47
38716;BME280;24833;49.324;8.694;2022-12-18T04:16:14;101059.38;;;-8.90;87.55
38716;BME280;24833;49.324;8.694;2022-12-18T04:18:43;101064.63;;;-8.93;87.54
38716;BME280;24833;49.324;8.694;2022-12-18T04:21:10;101059.53;;;-8.96;87.30
38716;BME280;24833;49.324;8.694;2022-12-18T04:23:37;101057.06;;;-9.01;87.54
38716;BME280;24833;49.324;8.694;2022-12-18T04:26:06;101049.38;;;-9.04;87.34
38716;BME280;24833;49.324;8.694;2022-12-18T04:28:48;101048.63;;;-9.08;87.52
38716;BME280;24833;49.324;8.694;2022-12-18T04:31:15;101035.75;;;-9.11;87.46
38716;BME280;24833;49.324;8.694;2022-12-18T04:33:42;101037.44;;;-9.10;87.68
38716;BME280;24833;49.324;8.694;2022-12-18T04:36:10;101030.53;;;-9.08;88.25
38716;BME280;24833;49.324;8.694;2022-12-18T04:38:39;101020.13;;;-9.06;87.82
38716;BME280;24833;49.324;8.694;2022-12-18T04:41:10;101033.84;;;-9.02;87.66
38716;BME280;24833;49.324;8.694;2022-12-18T04:43:38;101033.75;;;-8.99;88.05
38716;BME280;24833;49.324;8.694;2022-12-18T04:46:08;101035.38;;;-8.95;88.38
38716;BME280;24833;49.324;8.694;2022-12-18T04:48:36;101040.50;;;-8.94;88.26
38716;BME280;24833;49.324;8.694;2022-12-18T04:51:04;101033.59;;;-8.93;88.36
38716;BME280;24833;49.324;8.694;2022-12-18T04:53:31;101036.09;;;-8.90;88.22
38716;BME280;24833;49.324;8.694;2022-12-18T04:56:09;101035.22;;;-8.89;88.15
38716;BME280;24833;49.324;8.694;2022-12-18T04:58:39;101029.94;;;-8.86;88.45
38716;BME280;24833;49.324;8.694;2022-12-18T05:01:07;101044.50;;;-8.82;88.69
38716;BME280;24833;49.324;8.694;2022-12-18T05:03:37;101033.97;;;-8.76;88.94
38716;BME280;24833;49.324;8.694;2022-12-18T05:06:06;101047.59;;;-8.69;88.89
38716;BME280;24833;49.324;8.694;2022-12-18T05:08:34;101046.56;;;-8.64;88.90
38716;BME280;24833;49.324;8.694;2022-12-18T05:11:13;101063.69;;;-8.58;88.81
38716;BME280;24833;49.324;8.694;2022-12-18T05:13:44;101064.41;;;-8.53;88.67
38716;BME280;24833;49.324;8.694;2022-12-18T05:16:13;101063.47;;;-8.51;88.47
38716;BME280;24833;49.324;8.694;2022-12-18T05:18:40;101064.34;;;-8.52;88.31
38716;BME280;24833;49.324;8.694;2022-12-18T05:21:07;101078.16;;;-8.51;88.33
38716;BME280;24833;49.324;8.694;2022-12-18T05:23:34;101073.00;;;-8.53;88.15
38716;BME280;24833;49.324;8.694;2022-12-18T05:26:04;101074.81;;;-8.55;88.06
38716;BME280;24833;49.324;8.694;2022-12-18T05:28:33;101070.47;;;-8.54;88.09
38716;BME280;24833;49.324;8.694;2022-12-18T05:31:02;101068.72;;;-8.54;88.47
38716;BME280;24833;49.324;8.694;2022-12-18T05:33:33;101077.28;;;-8.52;88.34
38716;BME280;24833;49.324;8.694;2022-12-18T05:36:03;101084.09;;;-8.47;88.81
38716;BME280;24833;49.324;8.694;2022-12-18T05:38:33;101081.34;;;-8.41;89.36
38716;BME280;24833;49.324;8.694;2022-12-18T05:41:01;101079.44;;;-8.36;89.46
38716;BME280;24833;49.324;8.694;2022-12-18T05:43:28;101073.28;;;-8.32;89.14
38716;BME280;24833;49.324;8.694;2022-12-18T05:45:56;101067.06;;;-8.27;89.17
38716;BME280;24833;49.324;8.694;2022-12-18T05:48:24;101061.66;;;-8.19;89.47
38716;BME280;24833;49.324;8.694;2022-12-18T05:50:54;101055.41;;;-8.12;89.51
38716;BME280;24833;49.324;8.694;2022-12-18T05:53:21;101040.47;;;-8.02;90.36
38716;BME280;24833;49.324;8.694;2022-12-18T05:55:48;101042.84;;;-7.96;90.47
38716;BME280;24833;49.324;8.694;2022-12-18T05:58:16;101038.28;;;-7.88;90.63
38716;BME280;24833;49.324;8.694;2022-12-18T06:00:45;101026.88;;;-7.82;90.61
38716;BME280;24833;49.324;8.694;2022-12-18T06:03:13;101021.47;;;-7.75;90.69
38716;BME280;24833;49.324;8.694;2022-12-18T06:05:43;101035.06;;;-7.68;90.51
38716;BME280;24833;49.324;8.694;2022-12-18T06:08:12;101044.50;;;-7.65;90.21
38716;BME280;24833;49.324;8.694;2022-12-18T06:10:40;101036.47;;;-7.58;90.88
38716;BME280;24833;49.324;8.694;2022-12-18T06:13:07;101040.75;;;-7.57;90.39
38716;BME280;24833;49.324;8.694;2022-12-18T06:15:37;101046.63;;;-7.52;90.57
38716;BME280;24833;49.324;8.694;2022-12-18T06:18:04;101054.28;;;-7.47;90.50
38716;BME280;24833;49.324;8.694;2022-12-18T06:20:31;101058.44;;;-7.43;90.75
38716;BME280;24833;49.324;8.694;2022-12-18T06:23:00;101067.91;;;-7.41;90.61
38716;BME280;24833;49.324;8.694;2022-12-18T06:25:27;101053.25;;;-7.42;90.65
38716;BME280;24833;49.324;8.694;2022-12-18T06:27:54;101063.50;;;-7.38;90.54
38716;BME280;24833;49.324;8.694;2022-12-18T06:30:22;101071.28;;;-7.38;90.40
38716;BME280;24833;49.324;8.694;2022-12-18T06:32:49;101062.53;;;-7.36;90.58
38716;BME280;24833;49.324;8.694;2022-12-18T06:35:23;101080.69;;;-7.36;90.48
38716;BME280;24833;49.324;8.694;2022-12-18T06:37:50;101072.06;;;-7.36;90.33
38716;BME280;24833;49.324;8.694;2022-12-18T06:40:18;101071.97;;;-7.33;90.48
38716;BME280;24833;49.324;8.694;2022-12-18T06:42:45;101074.53;;;-7.32;90.43
38716;BME280;24833;49.324;8.694;2022-12-18T06:45:12;101073.72;;;-7.34;90.36
38716;BME280;24833;49.324;8.694;2022-12-18T06:47:39;101077.97;;;-7.31;90.45
38716;BME280;24833;49.324;8.694;2022-12-18T06:50:06;101072.84;;;-7.33;90.22
38716;BME280;24833;49.324;8.694;2022-12-18T06:52:33;101080.56;;;-7.31;90.14
38716;BME280;24833;49.324;8.694;2022-12-18T06:55:01;101075.47;;;-7.34;90.16
38716;BME280;24833;49.324;8.694;2022-12-18T06:57:28;101077.22;;;-7.35;90.19
38716;BME280;24833;49.324;8.694;2022-12-18T06:59:54;101092.78;;;-7.35;90.13
38716;BME280;24833;49.324;8.694;2022-12-18T07:02:21;101094.53;;;-7.35;90.22
38716;BME280;24833;49.324;8.694;2022-12-18T07:04:49;101088.44;;;-7.34;90.19
38716;BME280;24833;49.324;8.694;2022-12-18T07:07:16;101091.06;;;-7.36;90.03
38716;BME280;24833;49.324;8.694;2022-12-18T07:09:43;101089.34;;;-7.35;90.20
38716;BME280;24833;49.324;8.694;2022-12-18T07:12:10;101101.50;;;-7.37;90.06
38716;BME280;24833;49.324;8.694;2022-12-18T07:14:37;101107.53;;;-7.37;90.03
38716;BME280;24833;49.324;8.694;2022-12-18T07:17:04;101107.59;;;-7.38;90.03
38716;BME280;24833;49.324;8.694;2022-12-18T07:19:32;101113.69;;;-7.39;89.94
38716;BME280;24833;49.324;8.694;2022-12-18T07:22:00;101107.69;;;-7.42;89.82
38716;BME280;24833;49.324;8.694;2022-12-18T07:24:27;101098.16;;;-7.41;89.90
38716;BME280;24833;49.324;8.694;2022-12-18T07:26:55;101105.13;;;-7.43;89.74
38716;BME280;24833;49.324;8.694;2022-12-18T07:29:22;101108.56;;;-7.43;89.91
38716;BME280;24833;49.324;8.694;2022-12-18T07:31:48;101118.09;;;-7.43;89.74
38716;BME280;24833;49.324;8.694;2022-12-18T07:34:16;101121.59;;;-7.44;89.88
38716;BME280;24833;49.324;8.694;2022-12-18T07:36:43;101109.53;;;-7.45;89.88
38716;BME280;24833;49.324;8.694;2022-12-18T07:39:13;101119.06;;;-7.46;89.95
38716;BME280;24833;49.324;8.694;2022-12-18T07:41:40;101135.50;;;-7.47;89.93
38716;BME280;24833;49.324;8.694;2022-12-18T07:44:15;101121.66;;;-7.46;89.84
38716;BME280;24833;49.324;8.694;2022-12-18T07:46:42;101126.88;;;-7.47;89.90
38716;BME280;24833;49.324;8.694;2022-12-18T07:49:09;101126.06;;;-7.49;89.90
38716;BME280;24833;49.324;8.694;2022-12-18T07:51:36;101120.03;;;-7.50;89.98
38716;BME280;24833;49.324;8.694;2022-12-18T07:54:03;101123.44;;;-7.48;89.74
38716;BME280;24833;49.324;8.694;2022-12-18T07:56:30;101120.00;;;-7.48;89.79
38716;BME280;24833;49.324;8.694;2022-12-18T07:58:58;101125.22;;;-7.50;89.91
38716;BME280;24833;49.324;8.694;2022-12-18T08:01:25;101117.44;;;-7.50;89.77
38716;BME280;24833;49.324;8.694;2022-12-18T08:03:53;101120.94;;;-7.51;89.81
38716;BME280;24833;49.324;8.694;2022-12-18T08:06:20;101122.63;;;-7.50;89.83
38716;BME280;24833;49.324;8.694;2022-12-18T08:08:55;101129.53;;;-7.49;89.77
38716;BME280;24833;49.324;8.694;2022-12-18T08:11:31;101115.69;;;-7.49;89.69
38716;BME280;24833;49.324;8.694;2022-12-18T08:14:03;101115.75;;;-7.51;89.90
38716;BME280;24833;49.324;8.694;2022-12-18T08:16:29;101124.41;;;-7.52;89.84
38716;BME280;24833;49.324;8.694;2022-12-18T08:18:57;101119.09;;;-7.47;89.88
38716;BME280;24833;49.324;8.694;2022-12-18T08:21:30;101119.94;;;-7.47;89.89
38716;BME280;24833;49.324;8.694;2022-12-18T08:24:01;101127.63;;;-7.44;90.12
38716;BME280;24833;49.324;8.694;2022-12-18T08:26:30;101123.28;;;-7.43;89.96
38716;BME280;24833;49.324;8.694;2022-12-18T08:28:59;101124.03;;;-7.39;90.17
38716;BME280;24833;49.324;8.694;2022-12-18T08:31:28;101130.84;;;-7.35;90.04
38716;BME280;24833;49.324;8.694;2022-12-18T08:33:56;101113.44;;;-7.32;90.20
38716;BME280;24833;49.324;8.694;2022-12-18T08:36:24;101130.53;;;-7.26;90.05
38716;BME280;24833;49.324;8.694;2022-12-18T08:38:53;101123.59;;;-7.26;90.32
38716;BME280;24833;49.324;8.694;2022-12-18T08:41:20;101124.34;;;-7.22;90.27
38716;BME280;24833;49.324;8.694;2022-12-18T08:43:48;101124.16;;;-7.16;90.20
38716;BME280;24833;49.324;8.694;2022-12-18T08:46:42;101105.13;;;-7.15;90.18
38716;BME280;24833;49.324;8.694;2022-12-18T08:49:11;101102.41;;;-7.12;90.35
38716;BME280;24833;49.324;8.694;2022-12-18T08:51:38;101103.91;;;-7.05;90.36
38716;BME280;24833;49.324;8.694;2022-12-18T08:54:06;101117.66;;;-7.03;90.25
38716;BME280;24833;49.324;8.694;2022-12-18T08:56:33;101105.38;;;-6.98;90.24
38716;BME280;24833;49.324;8.694;2022-12-18T08:59:01;101093.19;;;-6.94;90.32
38716;BME280;24833;49.324;8.694;2022-12-18T09:01:28;101086.13;;;-6.91;90.27
38716;BME280;24833;49.324;8.694;2022-12-18T09:03:55;101089.28;;;-6.82;90.19
38716;BME280;24833;49.324;8.694;2022-12-18T09:06:23;101077.13;;;-6.80;90.37
38716;BME280;24833;49.324;8.694;2022-12-18T09:08:50;101076.09;;;-6.76;90.48
38716;BME280;24833;49.324;8.694;2022-12-18T09:11:25;101076.78;;;-6.71;90.24
38716;BME280;24833;49.324;8.694;2022-12-18T09:13:53;101061.91;;;-6.66;90.28
38716;BME280;24833;49.324;8.694;2022-12-18T09:16:22;101060.00;;;-6.61;90.61
38716;BME280;24833;49.324;8.694;2022-12-18T09:18:58;101060.66;;;-6.56;90.38
38716;BME280;24833;49.324;8.694;2022-12-18T09:21:32;101060.44;;;-6.50;90.37
38716;BME280;24833;49.324;8.694;2022-12-18T09:24:03;101068.94;;;-6.45;90.04
38716;BME280;24833;49.324;8.694;2022-12-18T09:26:35;101057.53;;;-6.41;90.09
38716;BME280;24833;49.324;8.694;2022-12-18T09:29:03;101058.25;;;-6.37;90.24
38716;BME280;24833;49.324;8.694;2022-12-18T09:31:30;101059.78;;;-6.32;90.09
38716;BME280;24833;49.324;8.694;2022-12-18T09:33:57;101062.28;;;-6.28;90.19
38716;BME280;24833;49.324;8.694;2022-12-18T09:36:24;101057.81;;;-6.25;90.18
38716;BME280;24833;49.324;8.694;2022-12-18T09:38:51;101079.34;;;-6.21;90.01
38716;BME280;24833;49.324;8.694;2022-12-18T09:41:55;101104.22;;;-6.16;90.19
38716;BME280;24833;49.324;8.694;2022-12-18T09:44:43;101111.88;;;-6.11;90.09
38716;BME280;24833;49.324;8.694;2022-12-18T09:47:27;101116.84;;;-6.05;90.11
38716;BME280;24833;49.324;8.694;2022-12-18T09:50:04;101106.22;;;-5.99;90.21
38716;BME280;24833;49.324;8.694;2022-12-18T09:52:34;101113.72;;;-5.91;90.25
38716;BME280;24833;49.324;8.694;2022-12-18T09:57:57;101133.97;;;-5.78;90.29
38716;BME280;24833;49.324;8.694;2022-12-18T10:00:28;101137.19;;;-5.71;90.48
38716;BME280;24833;49.324;8.694;2022-12-18T10:03:10;101147.31;;;-5.63;90.23
38716;BME280;24833;49.324;8.694;2022-12-18T10:05:59;101155.66;;;-5.55;90.29
38716;BME280;24833;49.324;8.694;2022-12-18T10:09:07;101143.25;;;-5.49;90.25
38716;BME280;24833;49.324;8.694;2022-12-18T10:12:23;101134.38;;;-5.43;90.13
38716;BME280;24833;49.324;8.694;2022-12-18T10:20:47;101097.81;;;-5.18;90.46
38716;BME280;24833;49.324;8.694;2022-12-18T10:23:39;101101.00;;;-5.11;90.30
38716;BME280;24833;49.324;8.694;2022-12-18T10:26:14;101111.97;;;-5.03;90.39
38716;BME280;24833;49.324;8.694;2022-12-18T10:28:42;101115.09;;;-4.95;90.42
38716;BME280;24833;49.324;8.694;2022-12-18T10:31:21;101120.84;;;-4.87;90.55
38716;BME280;24833;49.324;8.694;2022-12-18T10:33:53;101134.50;;;-4.82;90.20
38716;BME280;24833;49.324;8.694;2022-12-18T10:36:23;101125.59;;;-4.76;90.46
38716;BME280;24833;49.324;8.694;2022-12-18T10:38:51;101132.38;;;-4.72;89.99
38716;BME280;24833;49.324;8.694;2022-12-18T10:44:17;101119.03;;;-4.64;89.58
38716;BME280;24833;49.324;8.694;2022-12-18T10:47:02;101126.66;;;-4.60;89.60
38716;BME280;24833;49.324;8.694;2022-12-18T10:49:47;101106.31;;;-4.52;89.78
38716;BME280;24833;49.324;8.694;2022-12-18T10:52:24;101098.34;;;-4.49;89.61
38716;BME280;24833;49.324;8.694;2022-12-18T10:54:59;101099.09;;;-4.45;89.71
38716;BME280;24833;49.324;8.694;2022-12-18T10:57:34;101090.06;;;-4.38;89.91
38716;BME280;24833;49.324;8.694;2022-12-18T11:00:29;101099.25;;;-4.29;90.41
38716;BME280;24833;49.324;8.694;2022-12-18T11:02:57;101101.38;;;-4.19;90.83
38716;BME280;24833;49.324;8.694;2022-12-18T11:05:31;101107.25;;;-4.14;90.78
38716;BME280;24833;49.324;8.694;2022-12-18T11:08:00;101109.59;;;-4.07;90.72
38716;BME280;24833;49.324;8.694;2022-12-18T11:10:39;101119.72;;;-4.01;90.57
38716;BME280;24833;49.324;8.694;2022-12-18T11:13:22;101111.59;;;-3.95;90.29
38716;BME280;24833;49.324;8.694;2022-12-18T11:15:50;101099.69;;;-3.82;91.28
38716;BME280;24833;49.324;8.694;2022-12-18T11:18:31;101102.94;;;-3.77;90.71
38716;BME280;24833;49.324;8.694;2022-12-18T11:21:11;101099.06;;;-3.68;90.76
38716;BME280;24833;49.324;8.694;2022-12-18T11:23:52;101107.31;;;-3.59;90.95
38716;BME280;24833;49.324;8.694;2022-12-18T11:26:20;101111.97;;;-3.46;91.54
38716;BME280;24833;49.324;8.694;2022-12-18T11:29:07;101116.06;;;-3.41;90.91
38716;BME280;24833;49.324;8.694;2022-12-18T11:31:34;101118.41;;;-3.36;90.60
38716;BME280;24833;49.324;8.694;2022-12-18T11:34:29;101110.28;;;-3.30;90.27
38716;BME280;24833;49.324;8.694;2022-12-18T11:36:59;101112.63;;;-3.24;90.32
38716;BME280;24833;49.324;8.694;2022-12-18T11:39:42;101113.03;;;-3.14;90.63
38716;BME280;24833;49.324;8.694;2022-12-18T11:42:35;101104.09;;;-3.10;90.35
38716;BME280;24833;49.324;8.694;2022-12-18T11:47:52;101108.44;;;-2.92;90.88
38716;BME280;24833;49.324;8.694;2022-12-18T11:50:45;101105.06;;;-2.94;89.98
38716;BME280;24833;49.324;8.694;2022-12-18T11:53:13;101098.81;;;-2.91;89.64
38716;BME280;24833;49.324;8.694;2022-12-18T11:56:05;101101.34;;;-2.90;89.38
38716;BME280;24833;49.324;8.694;2022-12-18T11:59:03;101083.50;;;-2.82;89.70
38716;BME280;24833;49.324;8.694;2022-12-18T12:16:24;101097.13;;;-2.58;90.44
38716;BME280;24833;49.324;8.694;2022-12-18T12:19:26;101097.97;;;-2.57;90.35
38716;BME280;24833;49.324;8.694;2022-12-18T12:24:47;101092.78;;;-2.41;91.29
38716;BME280;24833;49.324;8.694;2022-12-18T12:30:20;101097.69;;;-2.35;91.05
38716;BME280;24833;49.324;8.694;2022-12-18T12:39:12;101088.44;;;-2.25;90.66
38716;BME280;24833;49.324;8.694;2022-12-18T12:41:42;101066.59;;;-2.24;91.01
38716;BME280;24833;49.324;8.694;2022-12-18T12:44:35;101062.44;;;-2.28;90.33
38716;BME280;24833;49.324;8.694;2022-12-18T12:47:18;101062.63;;;-2.31;89.93
38716;BME280;24833;49.324;8.694;2022-12-18T12:49:48;101054.84;;;-2.33;89.73
38716;BME280;24833;49.324;8.694;2022-12-18T12:52:35;101060.94;;;-2.32;90.33
38716;BME280;24833;49.324;8.694;2022-12-18T12:55:14;101054.47;;;-2.42;89.17
38716;BME280;24833;49.324;8.694;2022-12-18T12:58:05;101050.69;;;-2.37;90.14
38716;BME280;24833;49.324;8.694;2022-12-18T13:01:09;101057.34;;;-2.47;89.13
38716;BME280;24833;49.324;8.694;2022-12-18T13:03:56;101053.03;;;-2.48;89.79
38716;BME280;24833;49.324;8.694;2022-12-18T13:06:30;101046.38;;;-2.54;89.40
38716;BME280;24833;49.324;8.694;2022-12-18T13:09:12;101036.91;;;-2.56;89.48
38716;BME280;24833;49.324;8.694;2022-12-18T13:11:44;101037.16;;;-2.61;89.32
38716;BME280;24833;49.324;8.694;2022-12-18T13:14:36;101036.81;;;-2.55;89.94
38716;BME280;24833;49.324;8.694;2022-12-18T13:19:51;101031.16;;;-2.63;89.53
38716;BME280;24833;49.324;8.694;2022-12-18T13:22:34;101020.88;;;-2.66;89.12
38716;BME280;24833;49.324;8.694;2022-12-18T13:25:02;101020.09;;;-2.68;88.94
38716;BME280;24833;49.324;8.694;2022-12-18T13:27:55;101013.88;;;-2.65;89.74
38716;BME280;24833;49.324;8.694;2022-12-18T13:36:11;101000.94;;;-2.68;89.35
38716;BME280;24833;49.324;8.694;2022-12-18T13:38:41;101001.03;;;-2.70;89.20
38716;BME280;24833;49.324;8.694;2022-12-18T13:43:50;101000.28;;;-2.72;89.30
38716;BME280;24833;49.324;8.694;2022-12-18T13:46:27;101000.28;;;-2.72;89.38
38716;BME280;24833;49.324;8.694;2022-12-18T13:49:13;100991.59;;;-2.72;89.31
38716;BME280;24833;49.324;8.694;2022-12-18T13:51:52;100989.00;;;-2.72;89.30
38716;BME280;24833;49.324;8.694;2022-12-18T13:54:35;100982.06;;;-2.73;89.46
38716;BME280;24833;49.324;8.694;2022-12-18T13:57:05;100976.16;;;-2.77;89.23
38716;BME280;24833;49.324;8.694;2022-12-18T13:59:38;100987.34;;;-2.75;89.44
38716;BME280;24833;49.324;8.694;2022-12-18T14:02:18;100989.06;;;-2.74;89.65
38716;BME280;24833;49.324;8.694;2022-12-18T14:04:49;100983.25;;;-2.79;89.28
38716;BME280;24833;49.324;8.694;2022-12-18T14:07:26;100997.22;;;-2.80;89.09
38716;BME280;24833;49.324;8.694;2022-12-18T14:10:01;100989.44;;;-2.82;89.41
38716;BME280;24833;49.324;8.694;2022-12-18T14:12:52;100990.47;;;-2.84;89.24
38716;BME280;24833;49.324;8.694;2022-12-18T14:17:59;101005.38;;;-2.86;89.24
38716;BME280;24833;49.324;8.694;2022-12-18T14:20:31;101005.53;;;-2.89;89.28
38716;BME280;24833;49.324;8.694;2022-12-18T14:22:58;101003.09;;;-2.92;89.23
38716;BME280;24833;49.324;8.694;2022-12-18T14:25:29;100999.69;;;-2.94;89.14
38716;BME280;24833;49.324;8.694;2022-12-18T14:28:14;100999.69;;;-2.94;89.56
38716;BME280;24833;49.324;8.694;2022-12-18T14:30:44;100996.31;;;-2.96;89.35
38716;BME280;24833;49.324;8.694;2022-12-18T14:33:18;100993.63;;;-2.95;89.21
38716;BME280;24833;49.324;8.694;2022-12-18T14:36:02;100995.47;;;-2.97;89.29
38716;BME280;24833;49.324;8.694;2022-12-18T14:38:39;100990.25;;;-2.97;89.33
38716;BME280;24833;49.324;8.694;2022-12-18T14:41:15;100990.34;;;-2.98;89.42
38716;BME280;24833;49.324;8.694;2022-12-18T14:43:46;100993.94;;;-3.01;89.19